Time;durP1;ratioP1;P1;durP2;ratioP2;P2;SDS_P1;SDS_P2;PMS_P1;PMS_P2;Temp;Humidity;BMP_temperature;BMP_pressure;BME280_temperature;BME280_humidity;BME280_pressure;Samples;Min_cycle;Max_cycle;Signal;HPM_P1;HPM_P2
2021/12/22 00:00:58;;;;;;;14.53;3.20;;;;;;;20.89;56.86;100493.16;7314947;19;129251;-38
2021/12/22 00:03:24;;;;;;;16.58;3.00;;;;;;;20.87;56.76;100489.81;7315497;19;129288;-38
2021/12/22 00:05:51;;;;;;;13.73;2.88;;;;;;;20.90;56.44;100490.44;7313482;19;129489;-35
2021/12/22 00:08:17;;;;;;;13.90;2.70;;;;;;;20.93;56.10;100489.34;7313550;19;129539;-39
2021/12/22 00:10:44;;;;;;;15.57;2.92;;;;;;;20.85;56.11;100476.88;7315112;19;129498;-35
2021/12/22 00:13:10;;;;;;;15.07;2.92;;;;;;;20.91;55.97;100486.88;7312848;19;129359;-36
2021/12/22 00:15:35;;;;;;;16.10;3.13;;;;;;;20.89;56.16;100490.56;7312616;19;144122;-37
2021/12/22 00:18:01;;;;;;;17.88;3.28;;;;;;;20.87;56.90;100489.81;7312868;19;129168;-36
2021/12/22 00:20:26;;;;;;;13.40;2.60;;;;;;;20.83;56.50;100486.59;7312168;19;154616;-34
2021/12/22 00:22:51;;;;;;;4.97;1.55;;;;;;;20.73;57.09;100473.38;7314389;19;129765;-37
2021/12/22 00:25:17;;;;;;;19.05;3.35;;;;;;;20.83;56.87;100497.06;7311805;19;130135;-40
2021/12/22 00:27:42;;;;;;;12.88;2.40;;;;;;;20.81;56.77;100490.28;7310759;19;130453;-37
2021/12/22 00:30:09;;;;;;;19.65;3.28;;;;;;;20.83;57.25;100494.44;7313814;19;128778;-35
2021/12/22 00:32:37;;;;;;;16.65;3.33;;;;;;;20.83;57.02;100499.66;7313734;19;129282;-39
2021/12/22 00:35:03;;;;;;;14.50;2.80;;;;;;;20.89;56.86;100493.97;7312393;19;129022;-37
2021/12/22 00:37:29;;;;;;;17.10;3.63;;;;;;;20.87;57.31;100495.91;7310029;19;130773;-38
2021/12/22 00:39:56;;;;;;;14.70;2.57;;;;;;;20.93;57.31;100494.59;7314409;19;129723;-36
2021/12/22 00:42:24;;;;;;;13.25;2.60;;;;;;;20.94;56.39;100501.50;7313267;19;129106;-35
2021/12/22 00:44:52;;;;;;;16.55;3.03;;;;;;;20.94;56.39;100507.53;7309690;19;130654;-36
2021/12/22 00:47:19;;;;;;;14.73;2.58;;;;;;;21.00;56.41;100504.53;7309644;19;130549;-38
2021/12/22 00:49:44;;;;;;;23.98;3.60;;;;;;;20.98;56.29;100497.72;7312654;19;128995;-37
2021/12/22 00:52:09;;;;;;;19.33;2.85;;;;;;;21.15;56.34;100508.63;7312283;19;129207;-37
2021/12/22 00:54:35;;;;;;;17.02;3.00;;;;;;;21.17;55.70;100504.09;7309149;19;157269;-39
2021/12/22 00:57:06;;;;;;;18.05;2.97;;;;;;;21.20;55.76;100508.28;7309105;19;129112;-37
2021/12/22 00:59:35;;;;;;;13.30;2.80;;;;;;;21.17;55.63;100509.31;7310643;19;128823;-36
2021/12/22 01:02:01;;;;;;;17.40;3.35;;;;;;;21.16;55.81;100507.66;7312609;19;129138;-36
2021/12/22 01:04:27;;;;;;;17.95;3.47;;;;;;;21.17;55.08;100504.09;7310765;19;133945;-34
2021/12/22 01:06:53;;;;;;;13.60;2.30;;;;;;;21.10;55.93;100505.50;7311369;19;129169;-35
2021/12/22 01:09:18;;;;;;;18.25;3.08;;;;;;;21.08;55.85;100509.16;7311757;19;128827;-39
2021/12/22 01:11:44;;;;;;;22.52;3.50;;;;;;;21.09;55.91;100513.47;7313095;19;129788;-36
2021/12/22 01:14:10;;;;;;;14.45;2.85;;;;;;;21.04;55.36;100511.19;7311441;19;129571;-37
2021/12/22 01:16:36;;;;;;;23.30;3.80;;;;;;;21.10;56.03;100518.59;7310061;19;130060;-37
2021/12/22 01:19:06;;;;;;;18.60;3.35;;;;;;;21.10;56.37;100520.34;7309814;19;129418;-35
2021/12/22 01:21:41;;;;;;;15.13;2.85;;;;;;;21.19;55.54;100517.06;7310813;19;128911;-34
2021/12/22 01:26:46;;;;;;;14.93;2.85;;;;;;;21.30;54.98;100514.47;7308984;19;129584;-36
2021/12/22 01:29:13;;;;;;;11.15;2.67;;;;;;;21.20;54.99;100514.34;7311182;19;128953;-33
2021/12/22 01:31:40;;;;;;;19.27;3.20;;;;;;;21.26;55.66;100519.09;7311973;19;129335;-36
2021/12/22 01:34:05;;;;;;;17.27;3.30;;;;;;;21.32;54.81;100510.78;7310688;19;130210;-38
2021/12/22 01:36:31;;;;;;;12.95;2.78;;;;;;;21.27;55.65;100510.28;7308514;19;158565;-38
2021/12/22 01:38:56;;;;;;;12.90;2.55;;;;;;;21.31;54.84;100506.50;7309826;19;128849;-36
2021/12/22 01:41:22;;;;;;;13.85;2.40;;;;;;;21.30;55.40;100515.31;7310463;19;155400;-37
2021/12/22 01:43:48;;;;;;;26.38;4.85;;;;;;;21.31;54.94;100508.28;7311875;19;129104;-37
2021/12/22 01:49:09;;;;;;;16.90;2.87;;;;;;;21.22;55.67;100509.00;7310496;19;130435;-36
2021/12/22 01:49:43;;;;;;;14.60;2.40;;;;;;;21.24;56.07;100504.44;7310826;19;128861;-37
2021/12/22 01:52:09;;;;;;;14.70;2.92;;;;;;;21.24;55.41;100505.28;7309981;19;130070;-38
2021/12/22 01:54:40;;;;;;;13.70;2.90;;;;;;;21.27;55.77;100509.47;7311364;19;130102;-38
2021/12/22 01:57:10;;;;;;;12.43;2.33;;;;;;;21.28;55.20;100506.75;7313801;19;131371;-35
2021/12/22 01:59:37;;;;;;;14.68;2.75;;;;;;;21.15;54.98;100511.22;7317912;19;128786;-39
2021/12/22 02:02:06;;;;;;;16.30;2.85;;;;;;;21.13;55.70;100513.13;7318406;19;129073;-36
2021/12/22 02:04:31;;;;;;;15.93;3.20;;;;;;;21.11;55.43;100512.41;7315947;19;129498;-38
2021/12/22 02:06:57;;;;;;;16.92;3.03;;;;;;;21.13;55.67;100507.91;7313768;19;154694;-35
2021/12/22 02:09:46;;;;;;;13.67;2.40;;;;;;;21.07;55.51;100510.97;7315961;19;154843;-38
2021/12/22 02:12:13;;;;;;;12.27;2.38;;;;;;;21.05;55.38;100494.56;7317618;19;129575;-37
2021/12/22 02:14:43;;;;;;;18.05;3.08;;;;;;;21.12;55.10;100500.97;7315542;19;130724;-36
2021/12/22 02:17:10;;;;;;;13.90;2.53;;;;;;;21.13;55.23;100502.66;7314956;19;130510;-36
2021/12/22 02:19:46;;;;;;;15.98;2.90;;;;;;;20.96;55.90;100489.97;7316728;19;128902;-39
2021/12/22 02:22:14;;;;;;;17.70;2.90;;;;;;;20.99;55.99;100491.56;7315549;19;129547;-37
2021/12/22 02:24:53;;;;;;;15.57;2.50;;;;;;;21.07;55.98;100491.84;7316453;19;130990;-36
2021/12/22 02:27:28;;;;;;;14.55;2.72;;;;;;;21.05;55.51;100478.03;7314710;19;130706;-39
2021/12/22 02:30:00;;;;;;;13.05;2.20;;;;;;;21.11;55.27;100488.88;7317229;19;128946;-38
2021/12/22 02:35:04;;;;;;;13.35;2.47;;;;;;;21.10;55.60;100499.44;7315213;19;129147;-35
2021/12/22 02:37:31;;;;;;;17.75;2.95;;;;;;;21.21;55.09;100502.91;7314022;19;130743;-36
2021/12/22 02:40:00;;;;;;;20.48;3.60;;;;;;;21.17;55.16;100498.84;7313659;19;129257;-37
2021/12/22 02:42:29;;;;;;;14.90;2.58;;;;;;;21.23;55.70;100506.25;7315955;19;128830;-35
2021/12/22 02:44:55;;;;;;;13.18;2.45;;;;;;;21.24;55.63;100504.44;7314920;19;129959;-37
2021/12/22 02:47:26;;;;;;;14.18;2.65;;;;;;;21.32;55.34;100513.41;7311446;19;157394;-36
2021/12/22 02:49:51;;;;;;;15.52;2.60;;;;;;;21.23;55.75;100514.09;7316642;19;129583;-34
2021/12/22 02:52:17;;;;;;;16.23;2.85;;;;;;;21.22;54.99;100507.19;7315211;19;129248;-37
2021/12/22 02:54:51;;;;;;;16.08;3.00;;;;;;;21.24;55.06;100515.75;7314021;19;129007;-36
2021/12/22 02:57:37;;;;;;;13.70;2.45;;;;;;;21.16;55.40;100520.72;7314139;19;130402;-36
2021/12/22 03:02:42;;;;;;;18.85;3.03;;;;;;;21.01;55.72;100521.03;7316218;19;129806;-37
2021/12/22 03:05:07;;;;;;;17.98;3.03;;;;;;;21.00;55.99;100516.75;7315625;19;130612;-38
2021/12/22 03:07:33;;;;;;;4.80;1.48;;;;;;;20.96;55.76;100518.72;7313727;19;129161;-36
2021/12/22 03:10:03;;;;;;;14.50;2.60;;;;;;;20.94;55.94;100515.38;7316372;19;129454;-35
2021/12/22 03:12:33;;;;;;;14.73;2.55;;;;;;;20.85;56.05;100508.22;7316550;19;129236;-37
2021/12/22 03:14:58;;;;;;;14.30;2.40;;;;;;;20.93;56.34;100512.88;7314541;19;130739;-37
2021/12/22 03:17:23;;;;;;;19.58;3.03;;;;;;;20.93;55.49;100516.34;7312585;19;129993;-38
2021/12/22 03:19:49;;;;;;;9.60;1.77;;;;;;;20.93;55.86;100500.66;7312630;19;130489;-37
2021/12/22 03:22:18;;;;;;;19.40;2.90;;;;;;;20.91;56.21;100512.19;7315542;19;129708;-37
2021/12/22 03:24:46;;;;;;;21.48;3.25;;;;;;;21.00;55.84;100516.75;7313853;19;131115;-37
2021/12/22 03:27:12;;;;;;;18.50;2.95;;;;;;;20.90;55.81;100508.72;7313306;19;129751;-37
2021/12/22 03:29:38;;;;;;;15.35;2.78;;;;;;;20.88;56.12;100496.72;7313991;19;154709;-37
2021/12/22 03:32:04;;;;;;;19.20;3.28;;;;;;;20.98;55.97;100514.25;7315221;19;129796;-37
2021/12/22 03:34:30;;;;;;;17.50;3.10;;;;;;;20.96;56.18;100510.06;7313313;19;130183;-37
2021/12/22 03:36:55;;;;;;;13.18;2.30;;;;;;;20.96;55.63;100507.47;7313045;19;129413;-38
2021/12/22 03:39:21;;;;;;;6.00;1.33;;;;;;;20.96;55.61;100500.44;7313771;19;128910;-36
2021/12/22 03:41:47;;;;;;;18.55;2.83;;;;;;;21.04;56.07;100497.28;7313370;19;129031;-39
2021/12/22 03:44:13;;;;;;;18.80;3.13;;;;;;;21.06;55.93;100503.22;7313274;19;129979;-38
2021/12/22 03:46:38;;;;;;;24.90;4.10;;;;;;;21.07;56.18;100497.91;7311623;19;158779;-35
2021/12/22 03:49:06;;;;;;;16.25;2.83;;;;;;;21.12;55.36;100495.75;7314811;19;129416;-37
2021/12/22 03:51:32;;;;;;;14.15;2.75;;;;;;;21.06;55.83;100496.22;7313555;19;128932;-38
2021/12/22 03:53:57;;;;;;;24.98;4.40;;;;;;;21.07;56.15;100497.91;7311611;19;143856;-39
2021/12/22 03:56:22;;;;;;;14.77;2.58;;;;;;;21.02;55.47;100478.28;7310492;19;159635;-36
2021/12/22 03:58:48;;;;;;;20.02;3.13;;;;;;;21.09;55.38;100503.81;7312036;19;154443;-40
2021/12/22 04:01:14;;;;;;;16.70;2.80;;;;;;;21.09;55.95;100501.22;7314719;19;129182;-34
2021/12/22 04:03:42;;;;;;;15.20;2.72;;;;;;;21.06;55.71;100506.69;7314801;19;129132;-38
2021/12/22 04:06:07;;;;;;;24.70;3.75;;;;;;;21.10;56.00;100507.28;7312307;19;131147;-37
2021/12/22 04:08:32;;;;;;;10.27;1.88;;;;;;;21.14;55.42;100496.47;7313702;19;154471;-34
2021/12/22 04:10:58;;;;;;;21.85;3.78;;;;;;;21.13;55.35;100497.44;7312758;19;129507;-39
2021/12/22 04:13:23;;;;;;;11.48;2.15;;;;;;;21.14;55.51;100488.63;7313724;19;129760;-35
2021/12/22 04:15:49;;;;;;;17.48;2.72;;;;;;;21.07;55.38;100492.69;7311698;19;129598;-36
2021/12/22 04:18:15;;;;;;;18.15;2.85;;;;;;;21.12;55.57;100493.13;7312430;19;129540;-36
2021/12/22 04:20:41;;;;;;;15.00;2.63;;;;;;;21.09;55.41;100490.75;7313555;19;129267;-35
2021/12/22 04:23:07;;;;;;;14.75;2.45;;;;;;;21.07;55.58;100490.06;7313013;19;139829;-35
2021/12/22 04:25:33;;;;;;;18.17;2.92;;;;;;;21.06;55.85;100493.59;7312573;19;129590;-37
2021/12/22 04:28:04;;;;;;;16.70;2.60;;;;;;;21.07;55.54;100492.69;7314667;19;129749;-36
2021/12/22 04:30:32;;;;;;;17.98;2.85;;;;;;;21.07;55.47;100492.69;7313517;19;129497;-37
2021/12/22 04:32:58;;;;;;;9.75;1.88;;;;;;;21.06;55.74;100495.38;7313265;19;131009;-35
2021/12/22 04:35:23;;;;;;;17.60;2.72;;;;;;;20.97;55.71;100485.59;7311630;19;129485;-36
2021/12/22 04:37:48;;;;;;;15.38;2.30;;;;;;;21.02;55.83;100491.34;7310935;19;129451;-38
2021/12/22 04:40:14;;;;;;;12.50;2.00;;;;;;;21.02;55.45;100500.03;7310610;19;132509;-36
2021/12/22 04:42:40;;;;;;;19.33;3.20;;;;;;;20.98;55.68;100501.19;7312042;19;129671;-37
2021/12/22 04:45:07;;;;;;;16.73;2.78;;;;;;;21.01;55.92;100500.94;7312107;19;131025;-35
2021/12/22 04:47:33;;;;;;;18.48;2.97;;;;;;;20.88;55.99;100496.72;7311564;19;130239;-37
2021/12/22 04:50:00;;;;;;;15.35;2.78;;;;;;;20.84;56.37;100496.09;7314455;19;129308;-38
2021/12/22 04:52:28;;;;;;;12.48;2.33;;;;;;;20.86;55.95;100483.75;7313108;19;129030;-37
2021/12/22 04:55:04;;;;;;;5.45;1.33;;;;;;;20.86;56.19;100494.22;7311311;19;130888;-37
2021/12/22 04:57:31;;;;;;;11.98;2.35;;;;;;;20.81;56.06;100493.72;7309982;19;129812;-36
2021/12/22 04:59:57;;;;;;;13.43;2.33;;;;;;;20.81;55.90;100501.56;7311242;19;129685;-35
2021/12/22 05:02:22;;;;;;;14.98;2.53;;;;;;;20.83;56.54;100506.66;7313091;19;129699;-39
2021/12/22 05:04:47;;;;;;;17.92;2.63;;;;;;;20.83;56.30;100494.44;7310117;19;158890;-37
2021/12/22 05:07:13;;;;;;;12.98;2.03;;;;;;;20.87;56.16;100498.50;7310292;19;129328;-35
2021/12/22 05:09:38;;;;;;;22.20;3.22;;;;;;;20.83;56.14;100497.06;7312187;19;153496;-39
2021/12/22 05:12:04;;;;;;;17.52;2.72;;;;;;;20.80;55.99;100488.59;7311110;19;158523;-38
2021/12/22 05:14:29;;;;;;;12.15;2.30;;;;;;;20.84;55.86;100501.31;7311282;19;129874;-34
2021/12/22 05:16:59;;;;;;;14.95;2.50;;;;;;;20.80;56.68;100512.13;7310292;19;128865;-37
2021/12/22 05:19:25;;;;;;;6.68;1.67;;;;;;;20.71;55.75;100492.72;7311305;19;130715;-33
2021/12/22 05:21:50;;;;;;;10.70;1.80;;;;;;;20.86;55.73;100499.44;7312622;19;130118;-37
2021/12/22 05:24:16;;;;;;;11.65;2.13;;;;;;;20.82;56.54;100503.25;7307580;19;158431;-35
2021/12/22 05:26:41;;;;;;;18.38;3.10;;;;;;;20.81;56.33;100511.19;7309692;19;155414;-37
2021/12/22 05:29:07;;;;;;;18.40;3.08;;;;;;;20.76;56.60;100516.72;7310051;19;154756;-37
2021/12/22 05:31:33;;;;;;;13.98;2.60;;;;;;;20.74;56.61;100502.97;7309326;19;130718;-36
2021/12/22 05:33:58;;;;;;;20.92;3.67;;;;;;;20.72;56.84;100512.69;7310108;19;130392;-38
2021/12/22 05:36:24;;;;;;;22.27;3.15;;;;;;;20.73;56.24;100511.75;7309214;19;146827;-37
2021/12/22 05:38:49;;;;;;;8.60;1.50;;;;;;;20.73;56.56;100506.50;7311267;19;129886;-37
2021/12/22 05:41:14;;;;;;;21.88;3.33;;;;;;;20.73;56.55;100514.34;7309275;19;158709;-36
2021/12/22 05:43:40;;;;;;;10.87;2.00;;;;;;;20.72;56.22;100512.69;7310430;19;159560;-37
2021/12/22 05:46:05;;;;;;;14.57;2.43;;;;;;;20.74;56.25;100513.44;7308377;19;150118;-37
2021/12/22 05:48:30;;;;;;;15.68;2.53;;;;;;;20.69;56.89;100512.94;7311397;19;129678;-37
2021/12/22 05:51:01;;;;;;;13.77;2.20;;;;;;;20.72;56.34;100505.66;7309832;19;158610;-37
2021/12/22 05:53:27;;;;;;;14.80;2.33;;;;;;;20.77;56.36;100500.94;7311663;19;129156;-38
2021/12/22 05:55:53;;;;;;;8.50;1.77;;;;;;;20.80;55.89;100494.66;7310355;19;129942;-36
2021/12/22 05:58:18;;;;;;;3.37;0.97;;;;;;;20.83;56.25;100506.66;7312358;19;129370;-35
2021/12/22 06:00:43;;;;;;;4.15;1.30;;;;;;;20.91;56.47;100502.53;7308562;19;129403;-39
2021/12/22 06:03:11;;;;;;;18.20;2.63;;;;;;;20.86;56.41;100496.81;7310664;19;141145;-37
2021/12/22 06:05:38;;;;;;;21.48;3.22;;;;;;;20.82;56.14;100482.34;7310984;19;128785;-36
2021/12/22 06:08:04;;;;;;;16.85;2.78;;;;;;;20.92;55.63;100504.22;7312438;19;129295;-36
2021/12/22 06:10:30;;;;;;;10.20;1.90;;;;;;;20.89;55.89;100496.59;7312239;19;129055;-37
2021/12/22 06:12:55;;;;;;;20.35;3.38;;;;;;;20.95;56.21;100492.69;7312031;19;129071;-38
2021/12/22 06:15:21;;;;;;;13.45;2.10;;;;;;;21.11;55.17;100499.31;7309252;19;154378;-34
2021/12/22 06:17:48;;;;;;;25.80;3.85;;;;;;;21.07;55.48;100508.34;7308711;19;129093;-38
2021/12/22 06:20:13;;;;;;;12.35;2.00;;;;;;;20.85;55.72;100492.56;7309142;19;129000;-38
2021/12/22 06:22:39;;;;;;;18.85;3.10;;;;;;;20.99;56.05;100504.66;7309899;19;158592;-35
2021/12/22 06:25:04;;;;;;;13.50;2.37;;;;;;;20.89;55.90;100493.97;7308558;19;145582;-37
2021/12/22 06:27:29;;;;;;;11.20;2.10;;;;;;;21.04;55.82;100507.75;7308351;19;129095;-39
2021/12/22 06:29:55;;;;;;;17.13;2.58;;;;;;;21.08;55.88;100501.34;7306840;19;158650;-36
2021/12/22 06:32:20;;;;;;;10.77;2.05;;;;;;;21.14;55.85;100509.53;7308986;19;158218;-37
2021/12/22 06:34:45;;;;;;;14.27;2.17;;;;;;;21.22;55.36;100512.41;7308953;19;155157;-36
2021/12/22 06:37:12;;;;;;;14.38;2.50;;;;;;;21.13;55.59;100513.13;7307209;19;153927;-39
2021/12/22 06:39:38;;;;;;;21.40;3.13;;;;;;;21.13;54.94;100518.34;7309173;19;129340;-35
2021/12/22 06:42:06;;;;;;;11.80;2.20;;;;;;;21.15;55.47;100521.69;7311369;19;129801;-37
2021/12/22 06:44:31;;;;;;;13.88;2.67;;;;;;;21.24;55.11;100526.22;7316127;19;130250;-38
2021/12/22 06:46:57;;;;;;;7.32;1.65;;;;;;;21.22;55.04;100528.09;7313771;19;154029;-38
2021/12/22 06:49:23;;;;;;;14.00;2.17;;;;;;;21.19;55.10;100532.75;7314945;19;158223;-36
2021/12/22 06:51:49;;;;;;;14.88;2.33;;;;;;;21.10;55.61;100529.03;7316729;19;131114;-37
2021/12/22 06:54:15;;;;;;;15.13;2.67;;;;;;;21.11;55.09;100525.47;7316185;19;129017;-37
2021/12/22 06:56:40;;;;;;;16.08;2.58;;;;;;;20.98;55.61;100529.94;7309464;19;154074;-35
2021/12/22 06:59:05;;;;;;;18.33;3.00;;;;;;;20.93;55.96;100524.19;7311753;19;129531;-38
2021/12/22 07:01:33;;;;;;;18.58;3.05;;;;;;;21.04;56.12;100524.25;7310924;19;130332;-38
2021/12/22 07:03:59;;;;;;;29.65;4.68;;;;;;;20.97;56.15;100538.75;7311646;19;130087;-33
2021/12/22 07:06:24;;;;;;;31.63;4.47;;;;;;;20.97;55.75;100538.75;7312007;19;129029;-38
2021/12/22 07:08:49;;;;;;;17.67;2.95;;;;;;;20.94;56.36;100531.06;7311322;19;160198;-36
2021/12/22 07:11:14;;;;;;;33.10;4.43;;;;;;;20.90;56.50;100532.25;7310252;19;141451;-36
2021/12/22 07:13:40;;;;;;;16.33;2.67;;;;;;;20.91;56.13;100528.69;7310389;19;155070;-37
2021/12/22 07:16:05;;;;;;;22.02;3.50;;;;;;;20.89;56.82;100530.56;7310859;19;129690;-36
2021/12/22 07:18:32;;;;;;;23.60;3.67;;;;;;;20.87;57.36;100527.25;7311105;19;158472;-36
2021/12/22 07:20:58;;;;;;;18.27;2.97;;;;;;;20.86;56.68;100530.00;7309291;19;129495;-35
2021/12/22 07:23:24;;;;;;;16.20;2.60;;;;;;;20.83;57.54;100527.56;7311402;19;129226;-39
2021/12/22 07:25:49;;;;;;;22.30;3.25;;;;;;;20.88;56.23;100534.16;7310051;19;155755;-35
2021/12/22 07:28:15;;;;;;;17.60;2.90;;;;;;;20.87;56.55;100532.50;7310230;19;129485;-38
2021/12/22 07:30:40;;;;;;;24.23;3.60;;;;;;;20.85;56.89;100529.16;7311473;19;129521;-34
2021/12/22 07:33:05;;;;;;;21.88;3.42;;;;;;;20.89;57.24;100535.81;7309715;19;149635;-36
2021/12/22 07:35:58;;;;;;;22.30;3.75;;;;;;;20.92;57.09;100539.97;7310023;19;128977;-36
2021/12/22 07:38:46;;;;;;;15.95;2.78;;;;;;;21.00;56.56;100546.34;7307766;19;130256;-36
2021/12/22 07:41:12;;;;;;;20.73;3.03;;;;;;;21.01;56.04;100545.41;7308271;19;129618;-38
2021/12/22 07:43:37;;;;;;;18.27;2.97;;;;;;;21.01;55.61;100545.41;7311856;19;129439;-37
2021/12/22 07:46:04;;;;;;;28.88;4.35;;;;;;;21.00;55.70;100543.75;7306563;19;151960;-39
2021/12/22 07:48:29;;;;;;;;;;;;;;;20.94;56.65;100538.91;7311433;19;129555;-38
2021/12/22 07:50:55;;;;;;;19.67;2.90;;;;;;;20.90;55.78;100541.88;7308111;19;158502;-35
2021/12/22 07:53:20;;;;;;;22.48;3.35;;;;;;;20.92;55.62;100540.81;7310771;19;129202;-38
2021/12/22 07:55:46;;;;;;;19.92;2.90;;;;;;;20.91;55.66;100544.38;7309914;19;129959;-37
2021/12/22 07:58:11;;;;;;;15.88;2.60;;;;;;;20.96;55.98;100546.66;7309944;19;130444;-38
2021/12/22 08:00:37;;;;;;;30.38;4.60;;;;;;;20.96;56.19;100549.28;7304334;19;150378;-38
2021/12/22 08:03:03;;;;;;;13.77;2.47;;;;;;;21.00;55.28;100554.19;7310520;19;129536;-36
2021/12/22 08:05:29;;;;;;;28.75;4.43;;;;;;;21.05;56.20;100552.09;7307493;19;130102;-37
2021/12/22 08:07:56;;;;;;;16.30;2.50;;;;;;;21.07;55.97;100557.19;7308284;19;129947;-36
2021/12/22 08:10:21;;;;;;;;;;;;;;;21.11;57.27;100556.00;7309983;19;130297;-35
2021/12/22 08:12:46;;;;;;;20.58;3.38;;;;;;;21.20;55.11;100550.09;7308590;19;130159;-38
2021/12/22 08:15:13;;;;;;;22.33;3.87;;;;;;;21.20;55.09;100555.34;7307488;19;153570;-37
2021/12/22 08:17:38;;;;;;;30.38;4.18;;;;;;;21.14;54.93;100567.06;7305489;19;129768;-38
2021/12/22 08:20:04;;;;;;;22.80;3.50;;;;;;;21.08;55.70;100557.06;7305970;19;158391;-39
2021/12/22 08:22:29;;;;;;;18.67;2.97;;;;;;;21.05;55.23;100561.69;7309107;19;129716;-40
2021/12/22 08:24:55;;;;;;;22.52;3.28;;;;;;;21.05;54.89;100561.69;7307804;19;129001;-38
2021/12/22 08:27:23;;;;;;;20.90;4.10;;;;;;;21.07;54.69;100558.03;7307449;19;129247;-35
2021/12/22 08:29:50;;;;;;;21.38;3.85;;;;;;;21.06;54.99;100561.59;7307824;19;130345;-35
2021/12/22 08:32:15;;;;;;;19.55;3.35;;;;;;;21.02;54.65;100552.31;7308304;19;129631;-38
2021/12/22 08:34:42;;;;;;;20.88;3.50;;;;;;;20.95;54.81;100553.66;7305648;19;152579;-35
2021/12/22 08:39:55;;;;;;;23.08;3.88;;;;;;;20.93;55.22;100558.16;7307521;19;129554;-38
2021/12/22 08:42:20;;;;;;;25.60;4.00;;;;;;;20.97;55.48;100559.66;7309884;19;129364;-36
2021/12/22 08:44:46;;;;;;;21.40;3.60;;;;;;;21.12;54.78;100563.72;7308492;19;129089;-33
2021/12/22 08:47:12;;;;;;;20.70;3.37;;;;;;;21.07;54.49;100565.88;7307747;19;130167;-38
2021/12/22 08:49:37;;;;;;;24.95;4.88;;;;;;;21.04;54.72;100560.84;7307697;19;129431;-33
2021/12/22 08:52:03;;;;;;;29.75;4.70;;;;;;;21.03;55.25;100534.81;7307368;19;155165;-31
2021/12/22 08:54:29;;;;;;;24.45;4.38;;;;;;;21.17;54.55;100545.13;7306125;19;129744;-38
2021/12/22 08:56:55;;;;;;;12.82;2.50;;;;;;;21.17;54.74;100551.16;7305214;19;138825;-36
2021/12/22 08:59:21;;;;;;;20.27;3.40;;;;;;;21.17;54.10;100551.16;7308113;19;130671;-37
2021/12/22 09:01:47;;;;;;;19.90;3.22;;;;;;;21.10;54.93;100555.19;7309322;19;129230;-37
2021/12/22 09:04:12;;;;;;;17.73;3.22;;;;;;;21.02;54.76;100552.31;7306356;19;131412;-32
2021/12/22 09:06:37;;;;;;;32.92;5.05;;;;;;;21.00;55.15;100548.97;7305953;19;137515;-38
2021/12/22 09:09:04;;;;;;;38.42;6.15;;;;;;;21.02;55.07;100551.47;7304135;19;140310;-34
2021/12/22 09:11:30;;;;;;;;;;;;;;;21.04;54.93;100545.16;7306945;19;129200;-33
2021/12/22 09:13:55;;;;;;;26.65;4.85;;;;;;;20.95;55.57;100544.97;7308193;19;129513;-38
2021/12/22 09:16:22;;;;;;;15.63;2.75;;;;;;;20.91;55.54;100549.59;7305366;19;129650;-33
2021/12/22 09:18:48;;;;;;;;;;;;;;;20.85;56.92;100539.59;7307867;19;129941;-35
2021/12/22 09:21:13;;;;;;;16.25;2.90;;;;;;;20.80;55.81;100530.41;7305618;19;129654;-34
2021/12/22 09:23:39;;;;;;;39.30;5.95;;;;;;;20.87;55.75;100550.78;7304090;19;129009;-40
2021/12/22 09:26:05;;;;;;;29.53;4.83;;;;;;;20.85;56.43;100544.81;7305882;19;149693;-34
2021/12/22 09:28:31;;;;;;;17.07;3.30;;;;;;;20.85;56.10;100547.44;7306917;19;130137;-30
2021/12/22 09:30:59;;;;;;;26.50;4.22;;;;;;;20.80;55.98;100530.41;7304526;19;129683;-36
2021/12/22 09:33:25;;;;;;;22.25;3.53;;;;;;;20.77;56.46;100531.50;7308643;19;129511;-40
2021/12/22 09:35:53;;;;;;;18.25;3.53;;;;;;;20.83;55.38;100531.03;7305657;19;129668;-30
2021/12/22 09:38:18;;;;;;;18.25;3.67;;;;;;;20.82;55.66;100539.84;7307786;19;129634;-33
2021/12/22 09:40:45;;;;;;;25.98;4.25;;;;;;;20.84;56.06;100537.91;7305014;19;129580;-39
2021/12/22 09:43:10;;;;;;;30.42;4.95;;;;;;;20.79;57.00;100528.75;7307883;19;129201;-35
2021/12/22 09:45:42;;;;;;;24.05;4.50;;;;;;;20.84;56.16;100527.47;7307261;19;130244;-38
2021/12/22 09:50:44;;;;;;;30.75;4.82;;;;;;;20.83;56.22;100519.72;7304181;19;149145;-34
2021/12/22 09:53:09;;;;;;;25.97;4.97;;;;;;;20.75;56.47;100512.47;7307259;19;129872;-38
2021/12/22 09:55:35;;;;;;;29.63;4.68;;;;;;;20.83;55.51;100520.56;7302062;19;154449;-40
2021/12/22 09:58:04;;;;;;;27.33;4.35;;;;;;;20.86;55.63;100515.13;7303376;19;129264;-40
2021/12/22 10:00:32;;;;;;;17.98;3.70;;;;;;;20.89;55.85;100520.13;7304773;19;129750;-40
2021/12/22 10:02:58;;;;;;;15.32;2.80;;;;;;;20.94;55.27;100512.78;7307381;19;129042;-33
2021/12/22 10:05:23;;;;;;;25.48;4.15;;;;;;;20.95;54.51;100504.00;7305134;19;130353;-32
2021/12/22 10:08:06;;;;;;;26.92;4.80;;;;;;;20.97;55.81;100499.53;7301952;19;130816;-36
2021/12/22 10:10:32;;;;;;;16.48;2.97;;;;;;;20.89;54.36;100487.94;7304413;19;129547;-36
2021/12/22 10:13:09;;;;;;;20.77;3.45;;;;;;;20.80;55.10;100486.84;7306000;19;129977;-35
2021/12/22 10:15:36;;;;;;;27.25;4.63;;;;;;;20.93;54.78;100499.81;7305220;19;129878;-32
2021/12/22 10:18:19;;;;;;;17.73;3.17;;;;;;;20.74;54.55;100471.63;7310350;19;130538;-39
2021/12/22 10:20:48;;;;;;;21.88;3.65;;;;;;;20.87;54.97;100485.44;7309401;19;129302;-37
2021/12/22 10:23:22;;;;;;;22.60;3.88;;;;;;;20.86;54.65;100486.38;7312268;19;129877;-32
2021/12/22 10:25:57;;;;;;;26.38;4.38;;;;;;;20.76;55.28;100482.75;7306573;19;131386;-31
2021/12/22 10:28:24;;;;;;;11.43;2.38;;;;;;;20.80;54.81;100497.28;7312673;19;129882;-34
2021/12/22 10:30:55;;;;;;;30.05;4.68;;;;;;;20.84;54.94;100488.25;7312661;19;130026;-38
2021/12/22 10:33:24;;;;;;;15.18;2.85;;;;;;;20.90;55.25;100479.13;7312983;19;129081;-33
2021/12/22 10:36:01;;;;;;;25.15;3.88;;;;;;;21.01;54.44;100484.44;7311083;19;130259;-37
2021/12/22 10:38:29;;;;;;;24.37;3.50;;;;;;;21.02;54.12;100484.34;7311752;19;129817;-38
2021/12/22 10:40:57;;;;;;;18.20;3.00;;;;;;;20.95;55.09;100483.09;7310604;19;130030;-39
2021/12/22 10:43:26;;;;;;;22.45;3.85;;;;;;;21.11;54.13;100488.88;7312262;19;129085;-31
2021/12/22 10:45:59;;;;;;;23.80;3.72;;;;;;;21.12;54.84;100482.69;7310433;19;129410;-32
2021/12/22 10:51:12;;;;;;;17.80;3.15;;;;;;;21.11;54.66;100481.03;7310855;19;129421;-36
2021/12/22 10:53:43;;;;;;;27.55;4.47;;;;;;;21.11;54.44;100473.19;7310764;19;129176;-35
2021/12/22 10:56:08;;;;;;;19.30;3.40;;;;;;;21.19;54.24;100478.66;7311997;19;130231;-36
2021/12/22 10:58:34;;;;;;;13.23;2.65;;;;;;;21.08;54.73;100473.41;7310221;19;153345;-32
2021/12/22 11:01:10;;;;;;;22.98;3.72;;;;;;;21.06;54.81;100451.78;7309006;19;131158;-32
2021/12/22 11:03:50;;;;;;;24.20;4.43;;;;;;;21.02;54.43;100434.66;7312437;19;129388;-35
2021/12/22 11:06:21;;;;;;;17.13;3.50;;;;;;;21.09;54.35;100448.91;7310486;19;130336;-32
2021/12/22 11:09:17;;;;;;;24.55;3.75;;;;;;;21.10;54.99;100450.59;7311646;19;130499;-37
2021/12/22 11:11:44;;;;;;;30.50;4.72;;;;;;;21.08;54.05;100446.44;7310685;19;128854;-36
2021/12/22 11:14:22;;;;;;;23.70;4.05;;;;;;;21.14;54.87;100446.78;7311299;19;129354;-36
2021/12/22 11:17:15;;;;;;;24.48;3.63;;;;;;;21.15;54.58;100453.72;7311471;19;129369;-33
2021/12/22 11:19:46;;;;;;;20.20;3.40;;;;;;;21.04;54.73;100450.22;7309395;19;129690;-33
2021/12/22 11:22:14;;;;;;;23.70;3.80;;;;;;;21.01;55.34;100451.28;7309780;19;154708;-36
2021/12/22 11:24:50;;;;;;;15.07;2.97;;;;;;;20.94;55.34;100434.34;7310904;19;129767;-35
2021/12/22 11:27:20;;;;;;;8.07;1.95;;;;;;;21.02;55.20;100446.91;7309329;19;130203;-35
2021/12/22 11:29:54;;;;;;;25.98;4.32;;;;;;;20.95;55.15;100448.25;7309685;19;129176;-33